Waddington, United Kingdom
Current Conditions -  °F | °C
As of 7:50 AM on Wednesday 22 Oct 2014 (Local Time) from EGXW Reporting Station
Clear Clear  
Wind Chill:   Ceiling: Unl
Heat Index:   Visibility: 6mi
Dew Point:   Wind: 8mph
Humidity: 87%   Direction: 250°WSW
Pressure: 30.18"   Gusts: NA
Location:  53.17°N, 0.52°W
Report Text: EGXW 220650Z 25007KT CAVOK 07/05 Q1022 BLU NOSIG
Loading
Personal Weather Stations






























Interactive Weather Map
Tropical Storm Tracking
New forecast layout! Learn more

10-Day Weather Forecast

Advertisements
Track Severe Weather on mobile